Delta Ios — SVAK9 — position and weather

sailwx.info

Track history (hours):
 
Tides and Currents Weather Stations Pressure Air Temp Water Temp Dewpoint Dewpoint Depression Visibility Wind Speed Wind Dir Waves Ship Positions

Delta Ios

Last reported at 2018-Jun-10 13:58 UTC. Time now 2018-Jun-18 23:15 UTC.
Position N 01°24' E 103°15'.
Warning: this ship's position is 8 days out of date.

Length 276 m; draft 9 m.

Type: Tanker. MMSI: 240821000.

Date/timePositionNaut miles runAvg speedWind from/ knotsBaromVisibWave heightAir tempDewpointWater temp
2018-Jun-10 13:58N 01°24' E 103°15'5 8.7
2018-Jun-10 13:20N 01°20' E 103°19'3 8.3
2018-Jun-10 12:59N 01°18' E 103°21'4 8.0
2018-Jun-10 12:30N 01°15' E 103°24'4 8.6
2018-Jun-10 12:00N 01°14' E 103°28'4 9.1
2018-Jun-10 11:30N 01°13' E 103°32'5 9.4
2018-Jun-10 11:00N 01°12' E 103°37'4 9.1
2018-Jun-10 10:31N 01°10' E 103°41'5 9.9
2018-Jun-10 10:00N 01°10' E 103°46'612.3
2018-Jun-10 09:31N 01°12' E 103°51'4 8.2
2018-Jun-10 09:00N 01°14' E 103°55'1 2.2
2018-Jun-10 08:31N 01°15' E 103°55'0 0.0
2018-Jun-10 08:00N 01°15' E 103°55'0 0.0
2018-Jun-10 07:28N 01°15' E 103°55'0 0.1
2018-Jun-10 06:58N 01°15' E 103°55'0 0.0
2018-Jun-10 06:28N 01°15' E 103°55'0 0.0
2018-Jun-10 05:43N 01°15' E 103°55'0 0.0
2018-Jun-10 05:25N 01°15' E 103°55'0 0.0
2018-Jun-10 04:58N 01°15' E 103°55'0 0.0
2018-Jun-10 04:30N 01°15' E 103°55'0 0.0
2018-Jun-10 04:00N 01°15' E 103°55'0 0.0
2018-Jun-10 03:28N 01°15' E 103°55'0 0.1
2018-Jun-10 03:00N 01°15' E 103°55'0 0.0
2018-Jun-10 02:28N 01°15' E 103°55'0 0.0
2018-Jun-10 02:00N 01°15' E 103°55'0 0.0
2018-Jun-10 01:28N 01°15' E 103°55'0 0.0
2018-Jun-10 00:58N 01°15' E 103°55'0 0.0
2018-Jun-10 00:27N 01°15' E 103°55'0 0.0
2018-Jun-09 23:55N 01°15' E 103°55'0 0.0
2018-Jun-09 23:30N 01°15' E 103°55'0 0.0
2018-Jun-09 22:59N 01°15' E 103°55'0 0.0
2018-Jun-09 22:30N 01°15' E 103°55'0 0.0
2018-Jun-09 22:00N 01°15' E 103°55'0 0.0
2018-Jun-09 21:30N 01°15' E 103°55'0 0.0
2018-Jun-09 21:00N 01°15' E 103°55'0 0.0
2018-Jun-09 20:30N 01°15' E 103°55'0 0.0
2018-Jun-09 20:00N 01°15' E 103°55'0 0.0
2018-Jun-09 19:30N 01°15' E 103°55'0 0.1
2018-Jun-09 18:59N 01°15' E 103°55'0 0.0
2018-Jun-09 18:28N 01°15' E 103°55'0 0.0
2018-Jun-09 18:00N 01°15' E 103°55'0 0.0
2018-Jun-09 17:30N 01°15' E 103°55'0 0.0
2018-Jun-09 17:00N 01°15' E 103°55'0 0.0
2018-Jun-09 16:30N 01°15' E 103°55'0 0.0
2018-Jun-09 16:00N 01°15' E 103°55'0 0.0
2018-Jun-09 15:00N 01°15' E 103°55'0 0.0
2018-Jun-09 14:24N 01°15' E 103°55'0 0.0
2018-Jun-09 13:55N 01°15' E 103°55'0 0.0
2018-Jun-09 13:25N 01°15' E 103°55'0 0.1
2018-Jun-09 12:50N 01°15' E 103°55'0 0.0
2018-Jun-09 12:30N 01°15' E 103°55'0 0.1
2018-Jun-09 12:00N 01°15' E 103°55'0 0.1
2018-Jun-09 11:25N 01°15' E 103°55'0 0.0
2018-Jun-09 10:59N 01°15' E 103°55'0 0.1
2018-Jun-09 10:28N 01°15' E 103°55'0 0.1
2018-Jun-09 10:00N 01°15' E 103°55'1 1.5
2018-Jun-09 09:30N 01°16' E 103°56'2 4.5
2018-Jun-09 09:00N 01°16' E 103°58'2 4.1
2018-Jun-09 08:30N 01°16' E 104°00'3 5.7
2018-Jun-09 08:00N 01°16' E 104°03'4 8.2
2018-Jun-09 07:30N 01°17' E 104°07'3 7.1
2018-Jun-09 07:00N 01°17' E 104°11'3 6.4
2018-Jun-09 06:30N 01°17' E 104°14'4 7.2
2018-Jun-09 05:59N 01°18' E 104°17'3 6.7
2018-Jun-09 05:30N 01°19' E 104°21'4 7.0
2018-Jun-09 05:00N 01°22' E 104°23'4 8.1
2018-Jun-09 04:29N 01°25' E 104°26'4 8.4
2018-Jun-09 03:59N 01°27' E 104°29'  
Track history (hours):
 
Tides and Currents Weather Stations Pressure Air Temp Water Temp Dewpoint Dewpoint Depression Visibility Wind Speed Wind Dir Waves Ship Positions

Delta Ios

Last reported at 2018-Jun-10 13:58 UTC. Time now 2018-Jun-18 23:15 UTC.
Position N 01°24' E 103°15'.
Warning: this ship's position is 8 days out of date.

Length 276 m; draft 9 m.

Type: Tanker. MMSI: 240821000.

Date/timePositionNaut miles runAvg speedWind from/ knotsBaromVisibWave heightAir tempDewpointWater temp
2018-Jun-10 13:58N 01°24' E 103°15'5 8.7
2018-Jun-10 13:20N 01°20' E 103°19'3 8.3
2018-Jun-10 12:59N 01°18' E 103°21'4 8.0
2018-Jun-10 12:30N 01°15' E 103°24'4 8.6
2018-Jun-10 12:00N 01°14' E 103°28'4 9.1
2018-Jun-10 11:30N 01°13' E 103°32'5 9.4
2018-Jun-10 11:00N 01°12' E 103°37'4 9.1
2018-Jun-10 10:31N 01°10' E 103°41'5 9.9
2018-Jun-10 10:00N 01°10' E 103°46'612.3
2018-Jun-10 09:31N 01°12' E 103°51'4 8.2
2018-Jun-10 09:00N 01°14' E 103°55'1 2.2
2018-Jun-10 08:31N 01°15' E 103°55'0 0.0
2018-Jun-10 08:00N 01°15' E 103°55'0 0.0
2018-Jun-10 07:28N 01°15' E 103°55'0 0.1
2018-Jun-10 06:58N 01°15' E 103°55'0 0.0
2018-Jun-10 06:28N 01°15' E 103°55'0 0.0
2018-Jun-10 05:43N 01°15' E 103°55'0 0.0
2018-Jun-10 05:25N 01°15' E 103°55'0 0.0
2018-Jun-10 04:58N 01°15' E 103°55'0 0.0
2018-Jun-10 04:30N 01°15' E 103°55'0 0.0
2018-Jun-10 04:00N 01°15' E 103°55'0 0.0
2018-Jun-10 03:28N 01°15' E 103°55'0 0.1
2018-Jun-10 03:00N 01°15' E 103°55'0 0.0
2018-Jun-10 02:28N 01°15' E 103°55'0 0.0
2018-Jun-10 02:00N 01°15' E 103°55'0 0.0
2018-Jun-10 01:28N 01°15' E 103°55'0 0.0
2018-Jun-10 00:58N 01°15' E 103°55'0 0.0
2018-Jun-10 00:27N 01°15' E 103°55'0 0.0
2018-Jun-09 23:55N 01°15' E 103°55'0 0.0
2018-Jun-09 23:30N 01°15' E 103°55'0 0.0
2018-Jun-09 22:59N 01°15' E 103°55'0 0.0
2018-Jun-09 22:30N 01°15' E 103°55'0 0.0
2018-Jun-09 22:00N 01°15' E 103°55'0 0.0
2018-Jun-09 21:30N 01°15' E 103°55'0 0.0
2018-Jun-09 21:00N 01°15' E 103°55'0 0.0
2018-Jun-09 20:30N 01°15' E 103°55'0 0.0
2018-Jun-09 20:00N 01°15' E 103°55'0 0.0
2018-Jun-09 19:30N 01°15' E 103°55'0 0.1
2018-Jun-09 18:59N 01°15' E 103°55'0 0.0
2018-Jun-09 18:28N 01°15' E 103°55'0 0.0
2018-Jun-09 18:00N 01°15' E 103°55'0 0.0
2018-Jun-09 17:30N 01°15' E 103°55'0 0.0
2018-Jun-09 17:00N 01°15' E 103°55'0 0.0
2018-Jun-09 16:30N 01°15' E 103°55'0 0.0
2018-Jun-09 16:00N 01°15' E 103°55'0 0.0
2018-Jun-09 15:00N 01°15' E 103°55'0 0.0
2018-Jun-09 14:24N 01°15' E 103°55'0 0.0
2018-Jun-09 13:55N 01°15' E 103°55'0 0.0
2018-Jun-09 13:25N 01°15' E 103°55'0 0.1
2018-Jun-09 12:50N 01°15' E 103°55'0 0.0
2018-Jun-09 12:30N 01°15' E 103°55'0 0.1
2018-Jun-09 12:00N 01°15' E 103°55'0 0.1
2018-Jun-09 11:25N 01°15' E 103°55'0 0.0
2018-Jun-09 10:59N 01°15' E 103°55'0 0.1
2018-Jun-09 10:28N 01°15' E 103°55'0 0.1
2018-Jun-09 10:00N 01°15' E 103°55'1 1.5
2018-Jun-09 09:30N 01°16' E 103°56'2 4.5
2018-Jun-09 09:00N 01°16' E 103°58'2 4.1
2018-Jun-09 08:30N 01°16' E 104°00'3 5.7
2018-Jun-09 08:00N 01°16' E 104°03'4 8.2
2018-Jun-09 07:30N 01°17' E 104°07'3 7.1
2018-Jun-09 07:00N 01°17' E 104°11'3 6.4
2018-Jun-09 06:30N 01°17' E 104°14'4 7.2
2018-Jun-09 05:59N 01°18' E 104°17'3 6.7
2018-Jun-09 05:30N 01°19' E 104°21'4 7.0
2018-Jun-09 05:00N 01°22' E 104°23'4 8.1
2018-Jun-09 04:29N 01°25' E 104°26'4 8.4
2018-Jun-09 03:59N 01°27' E 104°29'  

Dump ship's entire track history